createdAt,value
2022-08-23T00:00:19.905Z,100034.03
2022-08-23T00:02:48.590Z,100032.38
2022-08-23T00:05:20.398Z,100042.09
2022-08-23T00:07:50.161Z,100038.78
2022-08-23T00:10:18.925Z,100034.25
2022-08-23T00:12:48.608Z,100038.78
2022-08-23T00:15:21.561Z,100035.06
2022-08-23T00:17:50.553Z,100043.34
2022-08-23T00:20:20.912Z,100037.97
2022-08-23T00:22:50.698Z,100037.13
2022-08-23T00:25:19.514Z,100026.38
2022-08-23T00:27:48.158Z,100030.13
2022-08-23T00:30:17.847Z,100023.09
2022-08-23T00:32:46.764Z,100028.28
2022-08-23T00:35:22.219Z,100029.06
2022-08-23T00:38:33.422Z,100039.63
2022-08-23T00:40:51.197Z,100030.31
2022-08-23T00:43:43.104Z,100025.53
2022-08-23T00:46:36.444Z,100033.41
2022-08-23T00:49:09.158Z,100044.13
2022-08-23T00:51:52.333Z,100041.84
2022-08-23T00:54:26.519Z,100042.69
2022-08-23T00:56:55.767Z,100057.09
2022-08-23T00:59:24.859Z,100065.75
2022-08-23T01:01:53.656Z,100075.22
2022-08-23T01:04:22.455Z,100078.69
2022-08-23T01:06:55.477Z,100083.22
2022-08-23T01:09:26.088Z,100081.94
2022-08-23T01:12:00.942Z,100081.09
2022-08-23T01:14:33.176Z,100093.06
2022-08-23T01:17:05.830Z,100093.44
2022-08-23T01:19:36.967Z,100089.28
2022-08-23T01:22:11.043Z,100097.94
2022-08-23T01:25:06.078Z,100095.88
2022-08-23T01:27:32.131Z,100105.59
2022-08-23T01:30:02.029Z,100102.28
2022-08-23T01:32:32.568Z,100107.66
2022-08-23T01:35:01.598Z,100109.31
2022-08-23T01:37:30.098Z,100099.16
2022-08-23T01:40:01.441Z,100089.47
2022-08-23T01:42:30.113Z,100092.56
2022-08-23T01:44:59.730Z,100086.16
2022-08-23T01:47:29.605Z,100095.06
2022-08-23T01:49:58.608Z,100102.69
2022-08-23T01:52:28.259Z,100104.13
2022-08-23T01:54:57.387Z,100105.16
2022-08-23T01:57:27.521Z,100108.88
2022-08-23T01:59:56.253Z,100106.63
2022-08-23T02:02:25.650Z,100111.19
2022-08-23T02:04:54.322Z,100102.94
2022-08-23T02:07:27.614Z,100103.81
2022-08-23T02:09:57.420Z,100123.91
2022-08-23T02:12:27.783Z,100126.59
2022-08-23T02:15:06.685Z,100136.13
2022-08-23T02:17:36.450Z,100121.28
2022-08-23T02:20:06.673Z,100120.69
2022-08-23T02:22:35.100Z,100108.72
2022-08-23T02:25:04.438Z,100101.31
2022-08-23T02:27:34.639Z,100103.41
2022-08-23T02:30:03.404Z,100107.97
2022-08-23T02:32:33.378Z,100103.81
2022-08-23T02:35:05.415Z,100076.75
2022-08-23T02:37:35.834Z,100072.84
2022-08-23T02:40:06.740Z,100072.47
2022-08-23T02:42:37.289Z,100071.44
2022-08-23T02:45:08.728Z,100061.91
2022-08-23T02:47:43.016Z,100067.72
2022-08-23T02:50:20.194Z,100077.59
2022-08-23T02:52:48.682Z,100075.97
2022-08-23T02:55:17.428Z,100085.06
2022-08-23T02:57:47.562Z,100083.41
2022-08-23T03:00:17.140Z,100063.00
2022-08-23T03:02:46.500Z,100064.22
2022-08-23T03:05:15.914Z,100062.38
2022-08-23T03:07:45.444Z,100063.41
2022-08-23T03:10:16.279Z,100063.59
2022-08-23T03:12:51.914Z,100058.22
2022-08-23T03:15:21.073Z,100065.72
2022-08-23T03:17:50.169Z,100059.88
2022-08-23T03:20:19.483Z,100056.16
2022-08-23T03:22:54.706Z,100058.22
2022-08-23T03:25:26.193Z,100052.84
2022-08-23T03:28:06.653Z,100052.66
2022-08-23T03:30:37.917Z,100052.03
2022-08-23T03:33:07.919Z,100052.44
2022-08-23T03:35:36.823Z,100049.31
2022-08-23T03:38:06.263Z,100048.69
2022-08-23T03:40:36.445Z,100051.97
2022-08-23T03:43:07.226Z,100050.31
2022-08-23T03:45:36.307Z,100054.88
2022-08-23T03:48:05.933Z,100048.66
2022-08-23T03:50:36.407Z,100048.47
2022-08-23T03:53:05.256Z,100038.75
2022-08-23T03:55:33.944Z,100040.41
2022-08-23T03:58:13.060Z,100040.19
2022-08-23T04:00:41.907Z,100037.94
2022-08-23T04:03:10.808Z,100033.59
2022-08-23T04:05:55.871Z,100036.09
2022-08-23T04:08:33.693Z,100036.09
2022-08-23T04:11:04.496Z,100045.38
2022-08-23T04:13:37.454Z,100053.00
2022-08-23T04:16:07.259Z,100042.44
2022-08-23T04:18:36.735Z,100049.00
2022-08-23T04:21:11.144Z,100046.72
2022-08-23T04:23:40.757Z,100051.69
2022-08-23T04:26:09.952Z,100052.28
2022-08-23T04:28:40.862Z,100049.97
2022-08-23T04:31:09.298Z,100063.59
2022-08-23T04:33:40.675Z,100060.47
2022-08-23T04:36:11.934Z,100063.56
2022-08-23T04:38:40.740Z,100069.09
2022-08-23T04:41:29.233Z,100079.41
2022-08-23T04:44:02.898Z,100076.63
2022-08-23T04:46:32.716Z,100084.00
2022-08-23T04:49:03.894Z,100080.41
2022-08-23T04:51:32.748Z,100084.53
2022-08-23T04:54:01.545Z,100090.22
2022-08-23T04:56:43.541Z,100082.75
2022-08-23T04:59:14.871Z,100082.06
2022-08-23T05:01:46.118Z,100085.44
2022-08-23T05:04:15.736Z,100083.72
2022-08-23T05:06:45.961Z,100091.59
2022-08-23T05:09:18.525Z,100090.38
2022-08-23T05:11:50.049Z,100099.75
2022-08-23T05:14:21.102Z,100095.69
2022-08-23T05:16:49.566Z,100103.66
2022-08-23T05:19:18.596Z,100099.75
2022-08-23T05:21:49.967Z,100108.91
2022-08-23T05:24:22.216Z,100103.59
2022-08-23T05:26:51.106Z,100104.13
2022-08-23T05:29:21.651Z,100108.81
2022-08-23T05:31:52.246Z,100111.19
2022-08-23T05:34:23.526Z,100105.44
2022-08-23T05:36:56.338Z,100100.88
2022-08-23T05:39:37.101Z,100105.00
2022-08-23T05:42:11.744Z,100114.88
2022-08-23T05:44:42.329Z,100116.53
2022-08-23T05:47:15.576Z,100122.97
2022-08-23T05:49:57.370Z,100125.31
2022-08-23T05:52:27.593Z,100134.47
2022-08-23T05:54:56.531Z,100131.59
2022-08-23T05:57:47.987Z,100125.63
2022-08-23T06:00:18.231Z,100137.94
2022-08-23T06:02:55.160Z,100134.63
2022-08-23T06:05:25.508Z,100132.41
2022-08-23T06:07:54.048Z,100131.84
2022-08-23T06:10:26.151Z,100135.13
2022-08-23T06:13:10.563Z,100141.78
2022-08-23T06:15:45.673Z,100140.72
2022-08-23T06:18:14.569Z,100138.06
2022-08-23T06:20:44.207Z,100135.22
2022-08-23T06:23:19.459Z,100131.34
2022-08-23T06:25:47.742Z,100131.91
2022-08-23T06:28:17.808Z,100131.34
2022-08-23T06:30:49.880Z,100136.66
2022-08-23T06:33:28.917Z,100136.69
2022-08-23T06:36:17.490Z,100141.78
2022-08-23T06:39:01.194Z,100137.25
2022-08-23T06:41:49.796Z,100135.22
2022-08-23T06:44:30.032Z,100143.38
2022-08-23T06:47:23.022Z,100142.09
2022-08-23T06:49:58.337Z,100150.41
2022-08-23T06:52:48.650Z,100150.41
2022-08-23T06:55:41.678Z,100152.69
2022-08-23T06:58:36.173Z,100148.59
2022-08-23T07:01:49.485Z,100145.00
2022-08-23T07:04:40.922Z,100138.41
2022-08-23T07:07:16.675Z,100141.88
2022-08-23T07:09:45.468Z,100136.63
2022-08-23T07:12:14.263Z,100132.59
2022-08-23T07:14:44.881Z,100141.91
2022-08-23T07:17:14.664Z,100138.97
2022-08-23T07:19:45.625Z,100137.97
2022-08-23T07:22:15.572Z,100128.16
2022-08-23T07:24:44.602Z,100136.34
2022-08-23T07:27:13.486Z,100132.53
2022-08-23T07:29:49.288Z,100129.56
2022-08-23T07:32:18.620Z,100134.13
2022-08-23T07:34:49.046Z,100134.38
2022-08-23T07:37:18.884Z,100132.66
2022-08-23T07:39:47.749Z,100134.13
2022-08-23T07:42:23.891Z,100130.38
2022-08-23T07:44:57.691Z,100136.25
2022-08-23T07:47:30.502Z,100131.13
2022-08-23T07:50:02.716Z,100128.31
2022-08-23T07:52:33.768Z,100132.19
2022-08-23T07:55:02.624Z,100128.13
2022-08-23T07:57:52.612Z,100129.19
2022-08-23T08:00:48.153Z,100125.84
2022-08-23T08:03:42.090Z,100146.31
2022-08-23T08:06:32.442Z,100138.38
2022-08-23T08:09:01.592Z,100141.00
2022-08-23T08:11:35.162Z,100133.69
2022-08-23T08:14:07.470Z,100130.66
2022-08-23T08:16:39.416Z,100138.97
2022-08-23T08:19:09.894Z,100146.28
2022-08-23T08:22:04.649Z,100141.38
2022-08-23T08:24:53.403Z,100141.00
2022-08-23T08:27:22.637Z,100139.03
2022-08-23T08:29:51.522Z,100140.31
2022-08-23T08:32:20.619Z,100135.06
2022-08-23T08:34:48.981Z,100139.56
2022-08-23T08:37:19.186Z,100143.13
2022-08-23T08:39:48.082Z,100139.88
2022-08-23T08:42:42.584Z,100146.06
2022-08-23T08:45:14.751Z,100146.91
2022-08-23T08:47:48.291Z,100152.66
2022-08-23T08:50:24.250Z,100154.53
2022-08-23T08:53:02.456Z,100155.84
2022-08-23T08:55:51.363Z,100153.19
2022-08-23T08:58:26.694Z,100146.94
2022-08-23T09:00:56.658Z,100154.28
2022-08-23T09:03:25.717Z,100148.00
2022-08-23T09:05:59.145Z,100151.06
2022-08-23T09:08:42.446Z,100146.41
2022-08-23T09:11:20.699Z,100146.97
2022-08-23T09:14:10.477Z,100140.56
2022-08-23T09:16:49.507Z,100139.06
2022-08-23T09:19:19.932Z,100128.47
2022-08-23T09:21:55.403Z,100135.00
2022-08-23T09:24:27.568Z,100144.69
2022-08-23T09:27:07.984Z,100142.78
2022-08-23T09:29:39.028Z,100139.03
2022-08-23T09:32:26.959Z,100146.25
2022-08-23T09:35:08.002Z,100142.75
2022-08-23T09:37:49.969Z,100138.47
2022-08-23T09:40:28.156Z,100140.97
2022-08-23T09:43:08.757Z,100139.00
2022-08-23T09:45:40.725Z,100137.03
2022-08-23T09:48:14.963Z,100141.28
2022-08-23T09:50:54.683Z,100141.81
2022-08-23T09:53:27.290Z,100146.22
2022-08-23T09:55:59.181Z,100141.41
2022-08-23T09:58:31.980Z,100132.66
2022-08-23T10:01:13.712Z,100133.25
2022-08-23T10:03:46.353Z,100140.25
2022-08-23T10:06:32.186Z,100135.31
2022-08-23T10:09:07.761Z,100135.91
2022-08-23T10:11:41.800Z,100135.59
2022-08-23T10:14:15.897Z,100134.31
2022-08-23T10:16:57.282Z,100137.78
2022-08-23T10:19:30.812Z,100131.94
2022-08-23T10:22:03.941Z,100118.09
2022-08-23T10:24:39.728Z,100124.72
2022-08-23T10:27:49.857Z,100123.38
2022-08-23T10:30:20.842Z,100112.78
2022-08-23T10:33:03.163Z,100115.44
2022-08-23T10:35:38.887Z,100115.28
2022-08-23T10:38:34.315Z,100102.53
2022-08-23T10:41:14.213Z,100104.72
2022-08-23T10:43:50.497Z,100103.34
2022-08-23T10:46:21.122Z,100102.47
2022-08-23T10:48:54.022Z,100098.72
2022-08-23T10:51:31.804Z,100101.13
2022-08-23T10:54:06.445Z,100098.09
2022-08-23T10:56:42.914Z,100101.91
2022-08-23T10:59:17.850Z,100098.53
2022-08-23T11:01:54.442Z,100108.16
2022-08-23T11:04:30.436Z,100103.22
2022-08-23T11:07:17.541Z,100091.28
2022-08-23T11:09:54.981Z,100093.56
2022-08-23T11:12:29.916Z,100092.69
2022-08-23T11:15:36.929Z,100094.56
2022-08-23T11:18:40.752Z,100086.75
2022-08-23T11:21:13.810Z,100083.56
2022-08-23T11:23:56.046Z,100089.28
2022-08-23T11:27:07.275Z,100082.72
2022-08-23T11:29:43.448Z,100091.13
2022-08-23T11:32:44.640Z,100087.84
2022-08-23T11:35:36.928Z,100092.50
2022-08-23T11:38:10.734Z,100091.78
2022-08-23T11:41:13.398Z,100097.88
2022-08-23T11:43:45.497Z,100090.69
2022-08-23T11:46:31.307Z,100087.47
2022-08-23T11:49:42.561Z,100092.16
2022-08-23T11:52:29.870Z,100089.84
2022-08-23T11:55:15.224Z,100098.81
2022-08-23T11:57:56.194Z,100092.44
2022-08-23T12:00:29.171Z,100088.94
2022-08-23T12:03:03.115Z,100090.78
2022-08-23T12:05:45.423Z,100088.25
2022-08-23T12:08:49.288Z,100089.09
2022-08-23T12:11:20.628Z,100085.97
2022-08-23T12:14:01.720Z,100087.00
2022-08-23T12:16:49.842Z,100078.53
2022-08-23T12:19:31.280Z,100074.50
2022-08-23T12:22:07.724Z,100084.31
2022-08-23T12:24:53.480Z,100082.47
2022-08-23T12:27:30.140Z,100077.44
2022-08-23T12:30:02.167Z,100070.09
2022-08-23T12:32:44.289Z,100062.34
2022-08-23T12:35:28.435Z,100067.38
2022-08-23T12:38:01.804Z,100066.28
2022-08-23T12:40:33.678Z,100056.03
2022-08-23T12:43:17.719Z,100054.53
2022-08-23T12:45:53.845Z,100057.38
2022-08-23T12:48:33.919Z,100043.22
2022-08-23T12:51:13.742Z,100047.94
2022-08-23T12:53:45.700Z,100048.16
2022-08-23T12:56:39.575Z,100060.44
2022-08-23T12:59:36.522Z,100058.81
2022-08-23T13:02:09.787Z,100063.63
2022-08-23T13:04:40.644Z,100065.06
2022-08-23T13:07:12.942Z,100064.34
2022-08-23T13:09:53.978Z,100063.50
2022-08-23T13:12:25.498Z,100052.72
2022-08-23T13:15:01.478Z,100042.38
2022-08-23T13:17:39.979Z,100049.38
2022-08-23T13:20:21.809Z,100031.94
2022-08-23T13:23:00.686Z,100025.09
2022-08-23T13:26:27.664Z,100019.72
2022-08-23T13:29:26.517Z,100010.75
2022-08-23T13:32:30.632Z,100006.25
2022-08-23T13:35:40.666Z,100005.16
2022-08-23T13:38:39.320Z,100007.84
2022-08-23T13:41:38.695Z,100015.59
2022-08-23T13:44:09.283Z,100027.47
2022-08-23T13:46:46.083Z,100032.06
2022-08-23T13:49:18.150Z,100032.81
2022-08-23T13:52:41.308Z,100051.50
2022-08-23T13:54:56.599Z,100056.19
2022-08-23T13:57:30.090Z,100061.44
2022-08-23T14:00:00.073Z,100061.00
2022-08-23T14:02:30.365Z,100056.41
2022-08-23T14:04:59.180Z,100062.19
2022-08-23T14:07:27.581Z,100054.56
2022-08-23T14:09:57.351Z,100049.28
2022-08-23T14:12:33.447Z,100033.03
2022-08-23T14:15:03.978Z,100032.38
2022-08-23T14:17:36.326Z,100034.56
2022-08-23T14:22:56.054Z,100048.59
2022-08-23T14:25:24.877Z,100057.25
2022-08-23T14:27:55.066Z,100057.06
2022-08-23T14:30:30.060Z,100066.25
2022-08-23T14:32:59.148Z,100068.19
2022-08-23T14:35:28.523Z,100072.56
2022-08-23T14:38:05.024Z,100076.09
2022-08-23T14:40:34.453Z,100085.38
2022-08-23T14:43:06.066Z,100083.13
2022-08-23T14:45:34.786Z,100088.91
2022-08-23T14:48:03.858Z,100086.91
2022-08-23T14:50:33.029Z,100093.00
2022-08-23T14:53:04.238Z,100094.19
2022-08-23T14:55:32.893Z,100099.28
2022-08-23T14:58:01.692Z,100102.13
2022-08-23T15:00:32.219Z,100103.91
2022-08-23T15:03:01.245Z,100112.66
2022-08-23T15:05:30.935Z,100111.44
2022-08-23T15:07:59.684Z,100108.66
2022-08-23T15:13:27.052Z,100110.47
2022-08-23T15:16:00.132Z,100119.38
2022-08-23T15:18:29.346Z,100118.69
2022-08-23T15:20:58.043Z,100118.00
2022-08-23T15:23:26.939Z,100122.78
2022-08-23T15:25:56.705Z,100122.34
2022-08-23T15:28:26.317Z,100136.31
2022-08-23T15:30:55.270Z,100143.94
2022-08-23T15:33:26.825Z,100148.22
2022-08-23T15:35:55.934Z,100150.06
2022-08-23T15:38:26.511Z,100154.00
2022-08-23T15:40:55.717Z,100136.84
2022-08-23T15:43:33.905Z,100138.69
2022-08-23T15:46:06.122Z,100143.16
2022-08-23T15:48:38.897Z,100147.78
2022-08-23T15:51:07.809Z,100149.03
2022-08-23T15:53:39.337Z,100149.50
2022-08-23T15:56:11.027Z,100164.88
2022-08-23T15:58:40.327Z,100172.94
2022-08-23T16:01:09.863Z,100184.22
2022-08-23T16:03:42.332Z,100191.06
2022-08-23T16:06:12.606Z,100181.38
2022-08-23T16:08:43.854Z,100181.03
2022-08-23T16:11:13.333Z,100171.06
2022-08-23T16:13:42.827Z,100179.28
2022-08-23T16:16:17.733Z,100166.94
2022-08-23T16:18:48.110Z,100168.34
2022-08-23T16:21:17.497Z,100175.41
2022-08-23T16:23:46.347Z,100174.09
2022-08-23T16:26:17.818Z,100178.19
2022-08-23T16:28:52.731Z,100179.25
2022-08-23T16:31:21.772Z,100183.84
2022-08-23T16:34:09.431Z,100190.44
2022-08-23T16:36:38.622Z,100193.72
2022-08-23T16:39:07.863Z,100190.75
2022-08-23T16:41:36.522Z,100201.25
2022-08-23T16:44:05.567Z,100203.75
2022-08-23T16:46:34.290Z,100207.50
2022-08-23T16:49:03.038Z,100211.28
2022-08-23T16:51:33.130Z,100214.94
2022-08-23T16:54:02.778Z,100221.16
2022-08-23T16:56:31.891Z,100230.00
2022-08-23T16:59:00.880Z,100237.19
2022-08-23T17:01:30.079Z,100241.41
2022-08-23T17:03:58.986Z,100244.59
2022-08-23T17:06:27.724Z,100255.00
2022-08-23T17:08:57.926Z,100262.41
2022-08-23T17:11:27.805Z,100265.88
2022-08-23T17:14:05.358Z,100275.13
2022-08-23T17:16:35.232Z,100281.75
2022-08-23T17:19:04.012Z,100279.47
2022-08-23T17:21:35.401Z,100278.94
2022-08-23T17:24:06.311Z,100281.63
2022-08-23T17:26:35.262Z,100289.13
2022-08-23T17:29:04.870Z,100287.19
2022-08-23T17:31:33.372Z,100291.22
2022-08-23T17:34:04.079Z,100290.19
2022-08-23T17:36:41.064Z,100296.63
2022-08-23T17:39:14.313Z,100294.31
2022-08-23T17:41:45.364Z,100292.41
2022-08-23T17:44:15.303Z,100295.75
2022-08-23T17:46:45.247Z,100295.47
2022-08-23T17:49:14.540Z,100297.63
2022-08-23T17:51:43.374Z,100303.00
2022-08-23T17:54:16.417Z,100295.38
2022-08-23T17:56:49.948Z,100307.66
2022-08-23T17:59:19.949Z,100307.66
2022-08-23T18:01:48.438Z,100315.75
2022-08-23T18:04:18.852Z,100315.34
2022-08-23T18:06:48.580Z,100316.63
2022-08-23T18:09:19.814Z,100323.88
2022-08-23T18:11:49.008Z,100313.94
2022-08-23T18:14:18.272Z,100323.44
2022-08-23T18:16:47.068Z,100325.47
2022-08-23T18:19:16.368Z,100313.88
2022-08-23T18:21:46.732Z,100318.59
2022-08-23T18:24:15.537Z,100323.69
2022-08-23T18:27:03.751Z,100329.94
2022-08-23T18:29:34.693Z,100324.91
2022-08-23T18:32:03.897Z,100329.25
2022-08-23T18:34:32.213Z,100328.66
2022-08-23T18:37:00.979Z,100335.53
2022-08-23T18:39:32.206Z,100341.97
2022-08-23T18:42:03.587Z,100349.00
2022-08-23T18:44:32.647Z,100349.16
2022-08-23T18:47:03.032Z,100351.88
2022-08-23T18:49:33.721Z,100359.75
2022-08-23T18:52:02.998Z,100355.88
2022-08-23T18:54:33.917Z,100353.69
2022-08-23T18:57:04.911Z,100357.25
2022-08-23T18:59:33.751Z,100353.53
2022-08-23T19:02:02.634Z,100353.75
2022-08-23T19:04:31.413Z,100353.16
2022-08-23T19:07:00.120Z,100355.22
2022-08-23T19:09:28.925Z,100356.91
2022-08-23T19:12:00.338Z,100360.22
2022-08-23T19:14:33.378Z,100361.09
2022-08-23T19:17:03.654Z,100348.03
2022-08-23T19:19:33.822Z,100347.00
2022-08-23T19:22:03.548Z,100354.03
2022-08-23T19:24:33.273Z,100348.66
2022-08-23T19:27:02.158Z,100348.72
2022-08-23T19:29:33.182Z,100347.94
2022-08-23T19:32:02.944Z,100358.69
2022-08-23T19:34:31.395Z,100351.47
2022-08-23T19:37:01.417Z,100351.72
2022-08-23T19:39:30.944Z,100355.06
2022-08-23T19:41:59.998Z,100348.44
2022-08-23T19:44:28.853Z,100351.78
2022-08-23T19:46:58.977Z,100344.53
2022-08-23T19:49:27.482Z,100349.91
2022-08-23T19:51:56.550Z,100349.91
2022-08-23T19:54:26.067Z,100358.81
2022-08-23T19:56:57.714Z,100362.53
2022-08-23T19:59:29.591Z,100357.59
2022-08-23T20:02:00.455Z,100362.16
2022-08-23T20:04:31.222Z,100362.59
2022-08-23T20:07:02.335Z,100363.19
2022-08-23T20:09:32.776Z,100362.16
2022-08-23T20:12:01.761Z,100358.44
2022-08-23T20:14:33.220Z,100352.84
2022-08-23T20:17:06.673Z,100353.06
2022-08-23T20:19:36.326Z,100359.94
2022-08-23T20:22:23.237Z,100362.63
2022-08-23T20:24:52.896Z,100367.41
2022-08-23T20:27:29.324Z,100366.78
2022-08-23T20:30:00.459Z,100370.94
2022-08-23T20:32:31.386Z,100370.53
2022-08-23T20:35:00.579Z,100366.38
2022-08-23T20:37:29.454Z,100366.41
2022-08-23T20:39:58.635Z,100365.41
2022-08-23T20:42:27.977Z,100365.41
2022-08-23T20:44:56.873Z,100361.47
2022-08-23T20:47:25.612Z,100363.78
2022-08-23T20:49:55.417Z,100361.28
2022-08-23T20:52:24.160Z,100350.75
2022-08-23T20:54:53.575Z,100354.69
2022-08-23T20:57:22.353Z,100351.59
2022-08-23T20:59:51.203Z,100351.19
2022-08-23T21:02:19.923Z,100356.97
2022-08-23T21:04:48.445Z,100353.88
2022-08-23T21:07:18.702Z,100355.53
2022-08-23T21:09:48.159Z,100349.75
2022-08-23T21:12:16.847Z,100352.66
2022-08-23T21:14:45.599Z,100351.22
2022-08-23T21:17:14.180Z,100347.91
2022-08-23T21:19:44.265Z,100340.66
2022-08-23T21:22:12.929Z,100341.91
2022-08-23T21:24:43.008Z,100342.09
2022-08-23T21:27:11.635Z,100338.78
2022-08-23T21:29:40.671Z,100335.47
2022-08-23T21:32:09.436Z,100340.28
2022-08-23T21:34:37.774Z,100333.84
2022-08-23T21:37:06.665Z,100345.03
2022-08-23T21:39:35.326Z,100349.78
2022-08-23T21:42:14.790Z,100352.47
2022-08-23T21:44:45.119Z,100348.31
2022-08-23T21:47:15.009Z,100346.03
2022-08-23T21:49:43.629Z,100345.22
2022-08-23T21:52:12.326Z,100347.28
2022-08-23T21:54:43.555Z,100349.13
2022-08-23T21:57:13.915Z,100346.66
2022-08-23T21:59:42.587Z,100347.06
2022-08-23T22:02:11.257Z,100345.41
2022-08-23T22:04:39.724Z,100342.09
2022-08-23T22:07:08.439Z,100346.81
2022-08-23T22:09:37.570Z,100349.13
2022-08-23T22:12:07.637Z,100341.47
2022-08-23T22:14:37.956Z,100342.50
2022-08-23T22:17:06.753Z,100340.00
2022-08-23T22:19:35.089Z,100336.28
2022-08-23T22:22:03.784Z,100332.56
2022-08-23T22:24:32.419Z,100330.09
2022-08-23T22:27:01.172Z,100334.00
2022-08-23T22:29:30.081Z,100339.59
2022-08-23T22:32:02.161Z,100347.44
2022-08-23T22:34:30.783Z,100349.94
2022-08-23T22:36:59.520Z,100356.09
2022-08-23T22:39:28.296Z,100362.09
2022-08-23T22:41:57.198Z,100357.13
2022-08-23T22:44:25.889Z,100362.91
2022-08-23T22:46:54.459Z,100358.97
2022-08-23T22:49:24.682Z,100362.91
2022-08-23T22:51:55.435Z,100363.13
2022-08-23T22:54:24.785Z,100362.50
2022-08-23T22:56:54.176Z,100365.59
2022-08-23T22:59:25.801Z,100360.41
2022-08-23T23:01:58.789Z,100358.34
2022-08-23T23:04:29.833Z,100358.53
2022-08-23T23:06:58.332Z,100362.69
2022-08-23T23:09:27.746Z,100358.53
2022-08-23T23:11:56.871Z,100363.09
2022-08-23T23:14:25.645Z,100360.59
2022-08-23T23:16:54.327Z,100362.66
2022-08-23T23:19:40.877Z,100363.06
2022-08-23T23:22:11.089Z,100360.59
2022-08-23T23:24:40.921Z,100359.13
2022-08-23T23:27:10.040Z,100355.63
2022-08-23T23:29:38.998Z,100358.50
2022-08-23T23:32:08.061Z,100357.69
2022-08-23T23:34:38.055Z,100361.00
2022-08-23T23:37:06.623Z,100365.13
2022-08-23T23:39:36.705Z,100366.75
2022-08-23T23:42:05.527Z,100372.97
2022-08-23T23:44:34.264Z,100370.47
2022-08-23T23:47:03.604Z,100369.66
2022-08-23T23:49:33.664Z,100385.31
2022-08-23T23:52:03.616Z,100368.41
2022-08-23T23:54:34.001Z,100366.94
2022-08-23T23:57:04.739Z,100365.09
2022-08-23T23:59:33.611Z,100362.41
